Time;durP1;ratioP1;P1;durP2;ratioP2;P2;SDS_P1;SDS_P2;PMS_P1;PMS_P2;Temp;Humidity;BMP_temperature;BMP_pressure;BME280_temperature;BME280_humidity;BME280_pressure;Samples;Min_cycle;Max_cycle;Signal;HPM_P1;HPM_P2
2022/10/01 00:01:06;;;;;;;6.97;5.13;;;;;;;14.43;66.39;95225.00;5063443;28;20028;-73
2022/10/01 00:03:32;;;;;;;6.55;5.05;;;;;;;14.38;65.93;95211.56;5032490;28;20036;-73
2022/10/01 00:06:05;;;;;;;8.05;4.97;;;;;;;14.41;66.55;95238.22;5044198;28;20040;-73
2022/10/01 00:08:31;;;;;;;7.07;5.28;;;;;;;14.38;66.58;95224.63;5065520;28;20047;-73
2022/10/01 00:10:59;;;;;;;8.25;5.35;;;;;;;14.25;66.91;95222.31;5065312;28;20112;-72
2022/10/01 00:13:25;;;;;;;9.57;5.18;;;;;;;14.26;66.69;95216.09;5064781;28;20490;-73
2022/10/01 00:15:50;;;;;;;6.30;5.38;;;;;;;14.20;67.13;95199.19;5063729;28;20040;-72
2022/10/01 00:18:16;;;;;;;7.07;5.25;;;;;;;14.21;67.50;95206.09;5032132;28;20490;-73
2022/10/01 00:20:42;;;;;;;7.63;5.40;;;;;;;14.22;67.85;95212.13;5048196;28;20115;-72
2022/10/01 00:23:11;;;;;;;6.97;4.88;;;;;;;14.13;67.74;95212.97;5031579;28;20043;-73
2022/10/01 00:25:37;;;;;;;9.23;5.43;;;;;;;14.18;67.84;95215.97;5046669;28;20469;-73
2022/10/01 00:28:03;;;;;;;9.95;5.50;;;;;;;14.03;68.13;95207.75;5065577;28;20078;-72
2022/10/01 00:30:28;;;;;;;9.43;5.63;;;;;;;13.98;68.39;95213.38;5051297;28;20029;-73
2022/10/01 00:32:54;;;;;;;7.25;5.22;;;;;;;13.97;68.39;95198.66;5068084;28;20086;-73
2022/10/01 00:35:21;;;;;;;6.63;5.43;;;;;;;14.12;68.04;95211.31;5067251;28;20056;-73
2022/10/01 00:37:51;;;;;;;8.48;5.40;;;;;;;14.14;67.66;95214.63;5068383;28;20049;-72
2022/10/01 00:40:19;;;;;;;9.82;6.03;;;;;;;14.07;67.84;95211.75;5052282;28;20028;-72
2022/10/01 00:42:45;;;;;;;5.75;4.75;;;;;;;14.08;68.06;95213.38;5051894;28;20546;-73
2022/10/01 00:45:12;;;;;;;8.20;5.53;;;;;;;14.14;67.66;95207.59;5066180;28;20036;-72
2022/10/01 00:47:39;;;;;;;9.07;5.13;;;;;;;14.11;67.48;95214.91;5050253;28;20086;-73
2022/10/01 00:50:16;;;;;;;9.27;4.75;;;;;;;14.11;67.84;95215.72;5053994;28;20032;-73
2022/10/01 00:52:44;;;;;;;6.38;4.95;;;;;;;14.06;67.99;95212.69;5071954;28;20552;-73
2022/10/01 00:55:15;;;;;;;5.72;4.93;;;;;;;14.14;67.80;95204.16;5055823;28;20020;-73
2022/10/01 00:57:41;;;;;;;6.32;5.25;;;;;;;14.20;68.00;95220.09;5072243;28;20407;-73
2022/10/01 01:00:08;;;;;;;6.20;5.00;;;;;;;14.36;66.69;95216.09;5045142;28;20050;-73
2022/10/01 01:02:33;;;;;;;5.38;4.88;;;;;;;14.26;67.12;95214.34;5035559;28;20431;-73
2022/10/01 01:04:59;;;;;;;7.32;5.50;;;;;;;14.19;67.25;95200.16;5051971;28;20029;-73
2022/10/01 01:07:25;;;;;;;6.40;4.97;;;;;;;14.19;67.22;95213.22;5035447;28;20029;-72
2022/10/01 01:09:50;;;;;;;7.78;5.25;;;;;;;14.12;67.52;95216.53;5035484;28;20041;-73
2022/10/01 01:12:31;;;;;;;7.60;5.68;;;;;;;14.13;67.57;95213.78;5052234;28;20207;-73
2022/10/01 01:15:03;;;;;;;8.77;5.07;;;;;;;14.14;67.29;95209.38;5053009;28;20108;-73
2022/10/01 01:18:09;;;;;;;7.25;5.55;;;;;;;14.11;67.99;95204.44;5034727;28;20044;-73
2022/10/01 01:20:44;;;;;;;5.00;4.47;;;;;;;14.06;67.59;95215.28;5051207;28;20477;-73
2022/10/01 01:23:15;;;;;;;5.88;5.18;;;;;;;13.98;67.60;95200.31;5052975;28;20414;-73
2022/10/01 01:25:41;;;;;;;5.80;4.78;;;;;;;14.03;67.71;95197.28;5053093;28;20025;-73
2022/10/01 01:28:12;;;;;;;7.25;4.78;;;;;;;13.99;67.68;95198.56;5066954;28;20537;-72
2022/10/01 01:30:40;;;;;;;6.20;5.03;;;;;;;14.02;67.83;95195.66;5072978;28;20040;-73
2022/10/01 01:33:11;;;;;;;8.70;4.90;;;;;;;14.06;67.97;95197.00;5071593;28;20067;-73
2022/10/01 01:35:40;;;;;;;5.55;4.97;;;;;;;14.10;66.97;95177.50;5053665;28;20075;-73
2022/10/01 01:38:09;;;;;;;5.40;4.75;;;;;;;14.03;67.15;95186.84;5018405;28;20067;-73
2022/10/01 01:40:35;;;;;;;5.63;5.00;;;;;;;14.02;67.64;95190.44;5072760;28;20024;-72
2022/10/01 01:43:04;;;;;;;5.93;4.90;;;;;;;14.07;68.51;95198.69;5072552;28;20592;-73
2022/10/01 01:45:29;;;;;;;6.07;4.90;;;;;;;14.03;68.26;95202.50;5070417;28;20446;-73
2022/10/01 01:47:56;;;;;;;5.30;4.63;;;;;;;14.08;67.63;95202.94;5038007;28;20036;-73
2022/10/01 01:50:23;;;;;;;7.38;5.32;;;;;;;13.87;68.46;95203.06;5071195;28;20032;-73
2022/10/01 01:52:48;;;;;;;4.90;4.35;;;;;;;13.84;68.72;95198.94;5071171;28;20040;-72
2022/10/01 01:55:14;;;;;;;6.32;5.15;;;;;;;13.73;68.94;95206.91;5060436;28;20033;-73
2022/10/01 01:57:40;;;;;;;6.15;5.20;;;;;;;13.77;68.48;95203.06;5051094;28;20043;-73
2022/10/01 02:00:06;;;;;;;6.78;5.22;;;;;;;13.72;69.62;95207.88;5034539;28;20033;-73
2022/10/01 02:02:32;;;;;;;5.60;5.00;;;;;;;13.72;68.87;95205.28;5051049;28;20036;-73
2022/10/01 02:05:24;;;;;;;7.55;5.63;;;;;;;13.68;68.94;95209.13;5050735;28;20415;-73
2022/10/01 02:08:26;;;;;;;5.88;5.10;;;;;;;13.71;68.90;95202.81;5049692;28;20079;-73
2022/10/01 02:10:56;;;;;;;7.10;5.22;;;;;;;13.74;68.47;95218.19;5050678;28;20564;-72
2022/10/01 02:13:32;;;;;;;8.20;5.50;;;;;;;13.66;68.68;95237.16;5050825;28;20056;-73
2022/10/01 02:16:17;;;;;;;5.78;5.07;;;;;;;13.94;67.96;95239.91;5050711;28;20037;-73
2022/10/01 02:18:55;;;;;;;7.72;5.70;;;;;;;13.74;68.68;95239.91;5051974;28;20502;-73
2022/10/01 02:21:30;;;;;;;8.18;6.00;;;;;;;13.66;69.11;95234.53;5050981;28;20025;-73
2022/10/01 02:23:59;;;;;;;7.07;5.32;;;;;;;13.68;68.91;95232.63;5070539;28;20085;-73
2022/10/01 02:26:25;;;;;;;6.90;5.05;;;;;;;13.71;68.34;95234.97;5070658;28;20035;-72
2022/10/01 02:28:52;;;;;;;6.68;5.45;;;;;;;13.74;68.69;95245.13;5037207;28;20430;-73
2022/10/01 02:31:18;;;;;;;6.53;5.50;;;;;;;13.72;68.49;95247.03;5046463;28;20107;-73
2022/10/01 02:33:43;;;;;;;6.00;5.40;;;;;;;13.74;68.71;95247.75;5050536;28;20243;-73
2022/10/01 02:36:09;;;;;;;7.75;5.32;;;;;;;13.84;68.26;95245.13;5050092;28;20396;-72
2022/10/01 02:38:35;;;;;;;7.05;5.30;;;;;;;13.79;68.23;95232.50;5033789;28;20029;-73
2022/10/01 02:41:01;;;;;;;6.93;5.40;;;;;;;13.86;68.18;95227.53;5049277;28;20119;-73
2022/10/01 02:43:32;;;;;;;5.57;5.00;;;;;;;13.93;67.92;95235.63;5033715;28;20499;-72
2022/10/01 02:46:01;;;;;;;6.13;5.43;;;;;;;13.90;68.20;95233.31;5018076;28;20266;-73
2022/10/01 02:48:27;;;;;;;7.57;5.47;;;;;;;13.99;67.30;95233.31;5033946;28;20039;-73
2022/10/01 02:50:56;;;;;;;5.68;4.90;;;;;;;14.05;67.30;95245.81;5034815;28;20085;-72
2022/10/01 02:53:31;;;;;;;6.30;5.35;;;;;;;14.15;67.82;95248.44;5069601;28;20042;-73
2022/10/01 02:55:56;;;;;;;5.95;5.35;;;;;;;14.26;68.26;95255.28;5053371;28;20043;-72
2022/10/01 02:58:22;;;;;;;6.32;5.40;;;;;;;14.36;67.93;95263.13;5032081;28;20033;-73
2022/10/01 03:00:47;;;;;;;6.03;5.38;;;;;;;14.28;68.71;95254.19;5033367;28;20430;-73
2022/10/01 03:03:13;;;;;;;6.60;5.22;;;;;;;14.28;68.57;95250.75;5049950;28;20426;-73
2022/10/01 03:05:38;;;;;;;5.97;5.38;;;;;;;14.35;68.59;95245.78;5033229;28;20025;-73
2022/10/01 03:08:04;;;;;;;7.38;5.50;;;;;;;14.33;68.34;95256.41;5049806;28;20036;-72
2022/10/01 03:10:29;;;;;;;5.45;4.57;;;;;;;14.33;68.72;95250.34;5051095;28;20036;-73
2022/10/01 03:12:55;;;;;;;7.25;5.20;;;;;;;14.37;68.19;95256.94;5033263;28;20040;-73
2022/10/01 03:15:20;;;;;;;6.35;4.93;;;;;;;14.15;67.44;95242.38;5050821;28;20491;-73
2022/10/01 03:17:50;;;;;;;7.55;5.45;;;;;;;14.42;67.54;95255.56;5052062;28;20087;-73
2022/10/01 03:20:15;;;;;;;11.15;6.57;;;;;;;14.54;67.94;95261.47;5053060;28;20406;-73
2022/10/01 03:22:43;;;;;;;12.05;8.25;;;;;;;14.47;68.24;95263.00;5070893;28;20033;-73
2022/10/01 03:25:09;;;;;;;14.88;11.00;;;;;;;14.36;68.16;95260.53;5069547;28;20397;-73
2022/10/01 03:27:34;;;;;;;8.68;7.47;;;;;;;14.14;68.74;95251.19;5050571;28;20040;-73
2022/10/01 03:30:00;;;;;;;8.75;7.07;;;;;;;14.09;69.00;95238.53;5049405;28;20036;-73
2022/10/01 03:32:25;;;;;;;10.23;6.93;;;;;;;14.20;69.44;95251.44;5049603;28;20029;-72
2022/10/01 03:34:50;;;;;;;10.30;6.93;;;;;;;14.29;69.12;95268.94;5051009;28;20466;-73
2022/10/01 03:37:16;;;;;;;9.48;6.88;;;;;;;14.08;69.78;95273.47;5050523;28;20404;-73
2022/10/01 03:39:41;;;;;;;11.13;7.63;;;;;;;14.06;70.03;95270.97;5067935;28;20481;-72
2022/10/01 03:42:07;;;;;;;12.57;8.02;;;;;;;14.05;69.82;95279.78;5032813;28;20029;-73
2022/10/01 03:44:32;;;;;;;13.80;8.00;;;;;;;13.95;70.21;95270.28;5056821;28;20040;-73
2022/10/01 03:46:58;;;;;;;10.90;7.47;;;;;;;14.12;70.00;95261.75;5052782;28;20663;-73
2022/10/01 03:49:23;;;;;;;10.75;7.30;;;;;;;14.13;69.68;95250.38;5051920;28;20512;-73
2022/10/01 03:51:49;;;;;;;11.15;7.35;;;;;;;14.05;69.83;95250.22;5051296;28;20020;-73
2022/10/01 03:54:14;;;;;;;9.52;6.97;;;;;;;13.90;70.38;95254.19;5053493;28;20028;-72
2022/10/01 03:56:41;;;;;;;9.35;6.85;;;;;;;13.84;70.83;95245.94;5038479;28;20040;-73
2022/10/01 03:59:07;;;;;;;12.75;7.28;;;;;;;13.77;70.79;95257.91;5032801;28;20025;-73
2022/10/01 04:01:33;;;;;;;10.13;7.55;;;;;;;13.50;71.94;95253.31;5050886;28;20052;-72
2022/10/01 04:03:58;;;;;;;8.80;6.85;;;;;;;13.67;71.78;95270.13;5045402;28;20025;-73
2022/10/01 04:06:24;;;;;;;10.07;6.53;;;;;;;13.57;71.66;95244.00;5068927;28;20049;-73
2022/10/01 04:08:49;;;;;;;8.98;6.93;;;;;;;13.57;71.54;95235.34;5059856;28;20029;-73
2022/10/01 04:11:14;;;;;;;10.30;6.57;;;;;;;13.68;71.65;95230.00;5059792;28;20036;-73
2022/10/01 04:13:40;;;;;;;9.60;6.70;;;;;;;13.62;71.20;95220.94;5059946;28;20112;-73
2022/10/01 04:16:05;;;;;;;13.32;7.45;;;;;;;13.56;71.45;95231.91;5028098;28;20506;-73
2022/10/01 04:18:31;;;;;;;8.23;6.82;;;;;;;13.46;72.03;95232.88;5061122;28;20037;-73
2022/10/01 04:20:57;;;;;;;12.48;7.53;;;;;;;13.55;71.95;95230.25;5044389;28;20028;-73
2022/10/01 04:23:23;;;;;;;11.13;7.00;;;;;;;13.47;72.30;95237.13;5060819;28;20498;-72
2022/10/01 04:25:48;;;;;;;9.65;6.75;;;;;;;13.55;71.60;95234.66;5034376;28;20430;-73
2022/10/01 04:28:14;;;;;;;10.40;6.60;;;;;;;13.36;72.39;95232.81;5044825;28;20032;-73
2022/10/01 04:30:41;;;;;;;10.18;6.35;;;;;;;13.35;72.23;95232.00;5045294;28;20024;-72
2022/10/01 04:33:08;;;;;;;7.93;6.07;;;;;;;13.26;72.06;95229.34;5045674;28;20025;-73
2022/10/01 04:35:33;;;;;;;8.02;6.03;;;;;;;13.33;71.25;95239.13;5044287;28;20054;-73
2022/10/01 04:38:04;;;;;;;11.00;6.45;;;;;;;13.32;71.65;95226.25;5061735;28;20033;-73
2022/10/01 04:40:30;;;;;;;12.20;7.05;;;;;;;13.39;72.62;95225.56;5061585;28;20402;-73
2022/10/01 04:42:56;;;;;;;10.90;6.68;;;;;;;13.47;72.25;95226.69;5061280;28;20043;-73
2022/10/01 04:45:21;;;;;;;12.07;7.47;;;;;;;13.44;72.36;95216.50;5038654;28;20020;-73
2022/10/01 04:47:48;;;;;;;13.00;6.88;;;;;;;13.38;72.43;95216.09;5035035;28;20029;-73
2022/10/01 04:50:15;;;;;;;8.80;6.35;;;;;;;13.24;72.81;95232.09;5061659;28;20492;-73
2022/10/01 04:52:40;;;;;;;14.25;7.00;;;;;;;13.22;73.82;95243.59;5057633;28;20048;-72
2022/10/01 04:55:06;;;;;;;9.70;6.65;;;;;;;13.27;73.89;95257.13;5063092;28;20383;-72
2022/10/01 04:57:32;;;;;;;10.07;7.03;;;;;;;13.27;73.60;95263.16;5055418;28;20036;-72
2022/10/01 04:59:58;;;;;;;8.57;5.65;;;;;;;13.28;72.60;95264.78;5055739;28;20033;-73
2022/10/01 05:02:23;;;;;;;7.10;5.55;;;;;;;13.27;71.61;95257.94;5066073;28;20383;-72
2022/10/01 05:04:48;;;;;;;7.32;5.78;;;;;;;13.27;71.26;95263.16;5064136;28;20017;-73
2022/10/01 05:07:14;;;;;;;8.10;5.97;;;;;;;13.39;70.22;95245.59;5043957;28;20052;-73
2022/10/01 05:09:39;;;;;;;7.53;5.80;;;;;;;13.44;70.41;95253.03;5060696;28;20445;-73
2022/10/01 05:12:06;;;;;;;6.13;5.53;;;;;;;13.43;70.23;95240.94;5066425;28;20060;-73
2022/10/01 05:14:32;;;;;;;6.55;5.88;;;;;;;13.62;70.84;95254.03;5069936;28;20151;-72
2022/10/01 05:16:58;;;;;;;12.20;7.03;;;;;;;13.67;71.28;95274.50;5045157;28;20111;-73
2022/10/01 05:19:23;;;;;;;10.75;7.10;;;;;;;13.86;71.36;95285.00;5065972;28;20028;-73
2022/10/01 05:21:50;;;;;;;18.75;9.32;;;;;;;13.91;71.37;95292.44;5062948;28;20422;-73
2022/10/01 05:24:16;;;;;;;10.40;7.75;;;;;;;13.87;71.25;95281.41;5061612;28;20611;-70
2022/10/01 05:26:41;;;;;;;12.25;7.22;;;;;;;13.95;70.79;95273.72;5066672;28;20024;-71
2022/10/01 05:29:07;;;;;;;10.98;7.43;;;;;;;14.15;71.06;95281.56;5055085;28;20032;-71
2022/10/01 05:31:33;;;;;;;10.15;6.30;;;;;;;14.07;70.66;95269.22;5054963;28;20494;-72
2022/10/01 05:33:58;;;;;;;11.55;6.93;;;;;;;14.23;70.98;95273.88;5054972;28;20033;-71
2022/10/01 05:36:24;;;;;;;11.63;7.60;;;;;;;14.27;70.98;95278.69;5054732;28;20059;-73
2022/10/01 05:38:51;;;;;;;42.13;25.00;;;;;;;14.33;71.03;95300.81;5071555;28;20483;-73
2022/10/01 05:41:17;;;;;;;26.40;15.20;;;;;;;14.24;71.54;95286.81;5072943;28;20021;-73
2022/10/01 05:43:43;;;;;;;97.30;55.38;;;;;;;14.39;71.25;95302.06;5039806;28;20199;-72
2022/10/01 05:46:09;;;;;;;13.48;9.45;;;;;;;14.48;70.44;95293.38;5034725;28;20499;-70
2022/10/01 05:48:35;;;;;;;17.50;8.50;;;;;;;14.55;70.55;95293.69;5034980;28;20120;-70
2022/10/01 05:51:03;;;;;;;14.27;8.43;;;;;;;14.70;70.60;95287.88;5034708;28;20522;-71
2022/10/01 05:53:28;;;;;;;20.45;8.15;;;;;;;14.91;70.18;95287.69;5052455;28;20037;-70
2022/10/01 05:55:54;;;;;;;11.60;7.53;;;;;;;15.37;68.91;95253.78;5051173;28;20033;-69
2022/10/01 05:58:19;;;;;;;12.82;7.20;;;;;;;16.07;65.97;95228.69;5034452;28;20613;-70
2022/10/01 06:00:45;;;;;;;10.60;5.85;;;;;;;16.31;64.80;95243.75;5050948;28;20033;-71
2022/10/01 06:03:14;;;;;;;7.32;5.60;;;;;;;16.53;63.83;95286.22;5052235;28;20025;-70
2022/10/01 06:05:39;;;;;;;7.90;4.80;;;;;;;16.81;63.42;95289.56;5051040;28;20071;-71
2022/10/01 06:08:05;;;;;;;10.82;5.47;;;;;;;16.73;64.36;95294.72;5053987;28;20032;-71
2022/10/01 06:10:31;;;;;;;6.70;5.20;;;;;;;16.65;63.66;95282.38;5050708;28;20033;-71
2022/10/01 06:13:04;;;;;;;5.75;5.10;;;;;;;16.58;62.50;95288.41;5034246;28;20033;-70
2022/10/01 06:15:33;;;;;;;6.70;4.97;;;;;;;17.56;58.79;95267.97;5023516;28;20027;-70
2022/10/01 06:18:01;;;;;;;8.38;5.40;;;;;;;17.81;59.36;95274.97;5059799;28;20044;-70
2022/10/01 06:20:27;;;;;;;12.55;6.32;;;;;;;17.69;59.80;95285.91;5027188;28;20486;-71
2022/10/01 06:22:54;;;;;;;9.45;6.93;;;;;;;17.87;59.06;95286.66;5064104;28;20033;-70
2022/10/01 06:25:20;;;;;;;15.32;6.75;;;;;;;18.39;57.43;95311.91;5041679;28;20056;-70
2022/10/01 06:27:55;;;;;;;13.75;6.85;;;;;;;18.80;56.47;95293.50;5058513;28;20024;-71
2022/10/01 06:30:20;;;;;;;16.52;5.40;;;;;;;19.48;54.84;95298.28;5043349;28;20115;-70
2022/10/01 06:32:46;;;;;;;10.00;5.70;;;;;;;20.29;52.89;95296.25;5085393;28;20497;-70
2022/10/01 06:35:11;;;;;;;11.35;6.28;;;;;;;20.81;50.90;95295.56;5051244;28;20059;-73
2022/10/01 06:37:37;;;;;;;9.65;5.78;;;;;;;21.19;50.37;95296.34;5070005;28;20044;-73
2022/10/01 06:40:04;;;;;;;9.13;5.68;;;;;;;21.42;49.24;95301.59;5070193;28;20157;-73
2022/10/01 06:42:29;;;;;;;7.53;5.03;;;;;;;21.84;48.28;95308.03;5070911;28;20055;-73
2022/10/01 06:44:54;;;;;;;11.55;5.53;;;;;;;22.09;47.76;95307.69;5053199;28;20429;-73
2022/10/01 06:47:20;;;;;;;10.30;6.18;;;;;;;22.41;47.00;95301.16;5071384;28;20518;-73
2022/10/01 06:49:45;;;;;;;9.35;6.10;;;;;;;22.36;47.44;95302.72;5071260;28;20414;-73
2022/10/01 06:54:55;;;;;;;12.35;6.78;;;;;;;22.39;46.37;95266.13;5071177;28;20498;-73
2022/10/01 06:57:20;;;;;;;11.43;6.50;;;;;;;22.20;46.50;95258.81;5051814;28;20036;-73
2022/10/01 06:59:46;;;;;;;7.80;6.90;;;;;;;22.02;47.35;95272.44;5067834;28;20036;-73
2022/10/01 07:02:22;;;;;;;12.90;6.70;;;;;;;21.35;48.86;95289.25;5067716;28;20052;-73
2022/10/01 07:04:48;;;;;;;10.65;6.90;;;;;;;21.26;49.05;95296.47;5051158;28;20024;-73
2022/10/01 07:07:13;;;;;;;10.57;6.57;;;;;;;20.89;49.45;95300.75;5067832;28;20036;-73
2022/10/01 07:09:39;;;;;;;9.40;5.97;;;;;;;20.90;49.34;95297.13;5067849;28;20391;-73
2022/10/01 07:12:05;;;;;;;10.63;6.55;;;;;;;20.78;49.84;95322.31;5052143;28;20051;-73
2022/10/01 07:14:30;;;;;;;11.75;6.47;;;;;;;20.53;49.61;95340.97;5069747;28;20106;-74
2022/10/01 07:16:56;;;;;;;9.20;6.22;;;;;;;20.18;50.71;95336.22;5069638;28;20036;-74
2022/10/01 07:19:21;;;;;;;10.45;6.40;;;;;;;20.16;51.00;95320.56;5053113;28;20021;-74
2022/10/01 07:21:47;;;;;;;9.05;5.93;;;;;;;19.96;51.63;95343.09;5070763;28;20478;-73
2022/10/01 07:24:13;;;;;;;10.00;5.75;;;;;;;20.05;51.21;95342.88;5036445;28;20536;-74
2022/10/01 07:26:38;;;;;;;10.57;5.90;;;;;;;19.90;52.12;95349.88;5053110;28;20047;-73
2022/10/01 07:29:05;;;;;;;10.30;6.88;;;;;;;19.86;51.43;95327.47;5070790;28;20531;-74
2022/10/01 07:31:30;;;;;;;8.32;6.72;;;;;;;19.66;52.25;95311.25;5069736;28;20021;-73
2022/10/01 07:33:57;;;;;;;9.15;6.35;;;;;;;19.81;52.54;95316.66;5069637;28;20452;-73
2022/10/01 07:36:22;;;;;;;9.57;6.43;;;;;;;19.78;51.75;95314.31;5036279;28;20049;-73
2022/10/01 07:38:49;;;;;;;7.70;6.25;;;;;;;19.82;51.27;95313.81;5070479;28;20031;-74
2022/10/01 07:41:16;;;;;;;10.93;6.00;;;;;;;19.79;52.29;95313.34;5036461;28;20040;-73
2022/10/01 07:43:42;;;;;;;8.75;6.18;;;;;;;19.96;49.95;95314.91;5069485;28;20035;-74
2022/10/01 07:46:08;;;;;;;12.25;6.70;;;;;;;20.14;50.65;95300.63;5053000;28;20032;-73
2022/10/01 07:48:34;;;;;;;12.63;6.22;;;;;;;20.18;50.29;95317.75;5049415;28;20124;-73
2022/10/01 07:50:59;;;;;;;9.38;6.22;;;;;;;20.18;50.55;95325.69;5070344;28;20443;-71
2022/10/01 07:53:25;;;;;;;9.88;5.82;;;;;;;20.27;50.36;95329.91;5029647;28;20035;-73
2022/10/01 07:55:50;;;;;;;11.75;6.10;;;;;;;20.36;51.20;95304.28;5047217;28;20033;-73
2022/10/01 07:58:17;;;;;;;12.80;9.13;;;;;;;20.48;48.89;95290.53;5048544;28;20029;-76
2022/10/01 08:00:43;;;;;;;14.93;9.27;;;;;;;20.56;49.04;95297.59;5066534;28;20052;-76
2022/10/01 08:03:11;;;;;;;10.55;5.60;;;;;;;20.62;48.95;95296.06;5035389;28;20502;-74
2022/10/01 08:05:37;;;;;;;9.60;6.32;;;;;;;20.62;49.14;95302.16;5051468;28;20475;-76
2022/10/01 08:08:03;;;;;;;11.55;7.50;;;;;;;20.59;48.55;95299.88;5049488;28;20040;-73
2022/10/01 08:10:35;;;;;;;10.55;6.63;;;;;;;20.47;49.65;95288.84;5054309;28;20561;-75
2022/10/01 08:13:13;;;;;;;10.57;6.05;;;;;;;20.34;50.06;95277.25;5067876;28;20509;-75
2022/10/01 08:15:38;;;;;;;8.50;4.95;;;;;;;20.30;50.43;95277.59;5068000;28;20036;-75
2022/10/01 08:18:04;;;;;;;12.23;5.32;;;;;;;20.06;49.36;95270.69;5051888;28;20028;-75
2022/10/01 08:20:29;;;;;;;13.75;5.63;;;;;;;19.76;50.77;95263.63;5068435;28;20032;-75
2022/10/01 08:23:21;;;;;;;9.20;5.65;;;;;;;19.63;51.69;95241.22;5042672;28;20051;-73
2022/10/01 08:25:47;;;;;;;12.10;5.93;;;;;;;19.48;52.51;95234.25;5054806;28;20033;-73
2022/10/01 08:28:13;;;;;;;10.98;5.40;;;;;;;19.39;53.59;95254.53;5062922;28;20025;-74
2022/10/01 08:30:39;;;;;;;9.27;6.68;;;;;;;19.40;54.56;95250.91;5043932;28;20306;-73
2022/10/01 08:33:05;;;;;;;11.98;6.55;;;;;;;19.17;54.84;95253.47;5020248;28;20475;-73
2022/10/01 08:35:31;;;;;;;46.05;41.10;;;;;;;19.34;53.72;95254.22;5065419;28;20129;-73
2022/10/01 08:38:03;;;;;;;16.73;10.60;;;;;;;19.37;55.46;95243.34;5052155;28;20525;-73
2022/10/01 08:40:29;;;;;;;24.42;20.17;;;;;;;19.33;56.76;95223.59;5034924;28;20455;-73
2022/10/01 08:43:13;;;;;;;18.20;16.20;;;;;;;19.19;56.68;95223.34;5048361;28;20055;-73
2022/10/01 08:45:47;;;;;;;14.80;9.82;;;;;;;19.23;55.61;95233.53;5032776;28;20029;-73
2022/10/01 08:48:32;;;;;;;11.77;6.15;;;;;;;19.10;54.97;95232.22;5033034;28;20028;-73
2022/10/01 08:51:10;;;;;;;25.98;22.30;;;;;;;19.16;54.52;95221.00;5051479;28;20052;-72
2022/10/01 08:53:48;;;;;;;26.17;21.45;;;;;;;19.00;56.78;95213.19;5035377;28;20064;-73
2022/10/01 08:56:39;;;;;;;15.45;10.70;;;;;;;18.90;56.31;95212.56;5061244;28;20066;-73
2022/10/01 08:59:35;;;;;;;20.35;12.43;;;;;;;18.61;57.38;95227.06;5052052;28;20090;-73
2022/10/01 09:02:01;;;;;;;10.13;7.05;;;;;;;18.74;56.79;95219.47;5069019;28;20056;-72
2022/10/01 09:04:26;;;;;;;11.20;5.85;;;;;;;18.71;57.30;95227.69;5050038;28;20044;-71
2022/10/01 09:07:01;;;;;;;11.77;6.30;;;;;;;18.70;58.04;95269.97;5045169;28;20032;-76
2022/10/01 09:09:54;;;;;;;13.45;7.68;;;;;;;18.71;57.21;95282.94;5063673;28;20033;-73
2022/10/01 09:12:39;;;;;;;12.68;8.15;;;;;;;18.68;59.36;95306.94;5042270;28;20513;-72
2022/10/01 09:15:15;;;;;;;16.90;12.75;;;;;;;18.66;59.47;95303.66;5072813;28;20032;-71
2022/10/01 09:17:47;;;;;;;9.93;8.13;;;;;;;18.70;60.51;95315.50;5070762;28;20536;-71
2022/10/01 09:20:26;;;;;;;15.85;8.32;;;;;;;18.75;60.20;95321.13;5071041;28;20107;-73
2022/10/01 09:23:14;;;;;;;11.25;6.88;;;;;;;18.60;59.65;95335.06;5071583;28;20452;-71
2022/10/01 09:25:39;;;;;;;10.85;6.43;;;;;;;18.19;60.16;95306.94;5070855;28;20498;-74
2022/10/01 09:28:21;;;;;;;9.05;6.25;;;;;;;18.51;60.81;95356.13;5064255;28;20055;-74
2022/10/01 09:31:03;;;;;;;9.85;6.72;;;;;;;18.51;62.73;95364.00;5040028;28;20411;-73
2022/10/01 09:33:40;;;;;;;9.02;6.15;;;;;;;18.38;61.32;95371.53;5049867;28;20530;-74
2022/10/01 09:36:14;;;;;;;7.90;6.05;;;;;;;18.30;62.86;95376.78;5057493;28;20084;-73
2022/10/01 09:38:45;;;;;;;8.77;6.15;;;;;;;18.41;63.55;95367.75;5072374;28;20058;-75
2022/10/01 09:41:11;;;;;;;9.30;6.53;;;;;;;18.41;65.52;95362.50;5054945;28;20028;-76
2022/10/01 09:43:38;;;;;;;10.82;6.63;;;;;;;18.24;65.38;95372.97;5071304;28;20052;-76
2022/10/01 09:46:11;;;;;;;10.68;6.22;;;;;;;18.18;66.95;95360.47;5065004;28;20048;-76
2022/10/01 09:48:45;;;;;;;9.30;6.13;;;;;;;17.95;64.53;95352.38;5068563;28;20067;-75
2022/10/01 09:51:13;;;;;;;7.55;5.70;;;;;;;17.83;65.52;95364.16;5070649;28;20032;-75
2022/10/01 09:53:59;;;;;;;7.55;5.55;;;;;;;17.86;65.58;95375.19;5052230;28;20032;-76
2022/10/01 09:56:27;;;;;;;8.10;5.28;;;;;;;17.68;68.89;95329.75;5071380;28;20029;-75
2022/10/01 09:58:55;;;;;;;8.57;4.95;;;;;;;17.59;64.71;95320.19;5038203;28;20482;-75
2022/10/01 10:01:47;;;;;;;5.97;4.05;;;;;;;17.66;66.45;95315.94;5054542;28;20102;-75
2022/10/01 10:04:22;;;;;;;3.80;1.70;;;;;;;17.95;65.36;95291.94;5056527;28;20048;-75
2022/10/01 10:06:47;;;;;;;3.92;1.73;;;;;;;18.14;65.12;95282.13;5052686;28;20048;-75
2022/10/01 10:09:17;;;;;;;3.70;2.20;;;;;;;18.13;66.82;95278.63;5035574;28;20102;-75
2022/10/01 10:11:43;;;;;;;3.67;2.10;;;;;;;18.14;64.01;95285.56;5052220;28;20052;-75
2022/10/01 10:14:19;;;;;;;4.72;3.50;;;;;;;18.36;63.22;95280.63;5034917;28;20048;-76
2022/10/01 10:16:46;;;;;;;6.15;2.85;;;;;;;18.60;62.21;95272.75;5052089;28;20170;-76
2022/10/01 10:19:27;;;;;;;4.50;1.95;;;;;;;18.79;63.87;95286.59;5052060;28;20029;-75
2022/10/01 10:21:59;;;;;;;3.90;2.22;;;;;;;18.71;65.07;95306.63;5070769;28;20036;-76
2022/10/01 10:24:29;;;;;;;3.15;2.13;;;;;;;18.65;66.06;95290.69;5054867;28;20099;-76
2022/10/01 10:26:57;;;;;;;3.63;2.15;;;;;;;18.63;65.78;95284.75;5054460;28;20032;-75
2022/10/01 10:29:40;;;;;;;4.80;2.30;;;;;;;18.59;65.40;95302.69;5070578;28;20399;-76
2022/10/01 10:32:14;;;;;;;3.65;1.65;;;;;;;18.63;64.40;95272.41;5070449;28;20107;-75
2022/10/01 10:34:41;;;;;;;3.40;2.10;;;;;;;18.67;64.15;95286.09;5054501;28;20037;-76
2022/10/01 10:37:28;;;;;;;9.18;5.68;;;;;;;18.83;66.37;95293.16;5070275;28;20072;-76
2022/10/01 10:39:53;;;;;;;7.82;4.80;;;;;;;18.80;65.51;95299.56;5070279;28;20495;-76
2022/10/01 10:42:21;;;;;;;20.95;13.73;;;;;;;18.92;66.53;95295.63;5070348;28;20032;-76
2022/10/01 10:44:48;;;;;;;16.10;9.75;;;;;;;18.96;64.79;95306.63;5053986;28;20028;-75
2022/10/01 10:47:15;;;;;;;7.75;5.03;;;;;;;18.92;68.00;95310.59;5053665;28;20032;-75
2022/10/01 10:49:57;;;;;;;6.97;4.18;;;;;;;18.97;68.65;95303.84;5053758;28;20115;-76
2022/10/01 10:52:28;;;;;;;8.70;5.70;;;;;;;18.96;69.81;95285.56;5054983;28;20166;-75
2022/10/01 10:54:54;;;;;;;7.60;6.15;;;;;;;18.82;70.56;95291.53;5069951;28;20050;-75
2022/10/01 10:57:29;;;;;;;10.50;5.68;;;;;;;18.68;71.28;95298.25;5053465;28;20032;-76
2022/10/01 10:59:58;;;;;;;11.43;7.30;;;;;;;18.75;69.65;95297.47;5053223;28;20025;-75
2022/10/01 11:02:28;;;;;;;9.43;5.95;;;;;;;18.75;68.95;95297.47;5069891;28;20037;-75
2022/10/01 11:04:54;;;;;;;12.48;4.45;;;;;;;18.62;70.44;95289.19;5054002;28;20115;-75
2022/10/01 11:07:21;;;;;;;5.57;4.60;;;;;;;18.61;69.18;95287.56;5036633;28;20186;-75
2022/10/01 11:10:02;;;;;;;7.13;4.93;;;;;;;18.51;69.72;95279.00;5053369;28;20517;-76
2022/10/01 11:12:35;;;;;;;7.95;4.72;;;;;;;18.66;71.05;95273.91;5069440;28;20036;-76
2022/10/01 11:15:00;;;;;;;6.15;4.63;;;;;;;18.62;69.63;95241.84;5069617;28;20048;-75
2022/10/01 11:17:54;;;;;;;7.57;5.15;;;;;;;18.42;70.32;95216.88;5071121;28;20037;-75
2022/10/01 11:20:49;;;;;;;8.40;4.72;;;;;;;18.51;71.88;95205.34;5069951;28;20028;-75
2022/10/01 11:23:32;;;;;;;7.82;5.53;;;;;;;18.52;69.84;95170.16;5070034;28;20508;-75
2022/10/01 11:26:17;;;;;;;9.32;6.03;;;;;;;18.33;70.70;95166.09;5069989;28;20028;-75
2022/10/01 11:28:57;;;;;;;9.68;5.90;;;;;;;18.24;73.82;95154.75;5069955;28;20514;-76
2022/10/01 11:31:25;;;;;;;9.10;6.38;;;;;;;18.14;75.17;95154.13;5069545;28;20463;-76
2022/10/01 11:34:09;;;;;;;10.57;5.82;;;;;;;18.10;70.04;95165.94;5071298;28;20047;-76
2022/10/01 11:37:00;;;;;;;9.27;6.10;;;;;;;18.05;70.85;95199.78;5052702;28;20048;-75
2022/10/01 11:39:25;;;;;;;;;;;;;;;18.15;74.19;95195.19;5053399;28;20480;-76
2022/10/01 11:41:53;;;;;;;6.22;4.78;;;;;;;18.23;73.60;95178.59;5052798;28;19912;-76